sensor_id;sensor_type;location;lat;lon;timestamp;pressure;altitude;pressure_sealevel;temperature;humidity
3598;BME280;1813;52.016;8.714;2022-11-21T00:01:20;-16261.94;;;-139.71;79.98
3598;BME280;1813;52.016;8.714;2022-11-21T00:03:54;-16261.94;;;-139.71;79.67
3598;BME280;1813;52.016;8.714;2022-11-21T00:06:28;-16261.94;;;-139.71;79.66
3598;BME280;1813;52.016;8.714;2022-11-21T00:09:04;-16261.94;;;-139.71;79.86
3598;BME280;1813;52.016;8.714;2022-11-21T00:11:38;-16261.94;;;-139.71;79.83
3598;BME280;1813;52.016;8.714;2022-11-21T00:14:11;-16261.94;;;-139.71;79.82
3598;BME280;1813;52.016;8.714;2022-11-21T00:16:45;-16261.94;;;-139.71;79.60
3598;BME280;1813;52.016;8.714;2022-11-21T00:19:19;-16261.94;;;-139.71;79.47
3598;BME280;1813;52.016;8.714;2022-11-21T00:21:53;-16261.94;;;-139.71;79.43
3598;BME280;1813;52.016;8.714;2022-11-21T00:24:29;-16261.94;;;-139.71;79.24
3598;BME280;1813;52.016;8.714;2022-11-21T00:27:03;-16261.94;;;-139.71;79.17
3598;BME280;1813;52.016;8.714;2022-11-21T00:29:37;-16261.94;;;-139.71;79.03
3598;BME280;1813;52.016;8.714;2022-11-21T00:32:11;-16261.94;;;-139.71;78.81
3598;BME280;1813;52.016;8.714;2022-11-21T00:34:44;-16261.94;;;-139.71;78.70
3598;BME280;1813;52.016;8.714;2022-11-21T00:37:18;-16261.94;;;-139.71;78.70
3598;BME280;1813;52.016;8.714;2022-11-21T00:39:54;-16261.94;;;-139.71;78.54
3598;BME280;1813;52.016;8.714;2022-11-21T00:42:28;-16261.94;;;-139.71;78.46
3598;BME280;1813;52.016;8.714;2022-11-21T00:45:02;-16261.94;;;-139.71;78.23
3598;BME280;1813;52.016;8.714;2022-11-21T00:47:36;-16261.94;;;-139.71;78.09
3598;BME280;1813;52.016;8.714;2022-11-21T00:50:10;-16261.94;;;-139.71;77.74
3598;BME280;1813;52.016;8.714;2022-11-21T00:52:43;-16261.94;;;-139.71;77.66
3598;BME280;1813;52.016;8.714;2022-11-21T00:55:20;-16261.94;;;-139.71;77.62
3598;BME280;1813;52.016;8.714;2022-11-21T00:57:53;-16261.94;;;-139.71;77.77
3598;BME280;1813;52.016;8.714;2022-11-21T01:00:27;-16261.94;;;-139.71;77.96
3598;BME280;1813;52.016;8.714;2022-11-21T01:03:01;-16261.94;;;-139.71;77.92
3598;BME280;1813;52.016;8.714;2022-11-21T01:05:34;-16261.94;;;-139.71;77.91
3598;BME280;1813;52.016;8.714;2022-11-21T01:08:08;-16261.94;;;-139.71;77.50
3598;BME280;1813;52.016;8.714;2022-11-21T01:10:44;-16261.94;;;-139.71;77.51
3598;BME280;1813;52.016;8.714;2022-11-21T01:13:18;-16261.94;;;-139.71;77.42
3598;BME280;1813;52.016;8.714;2022-11-21T01:15:52;-16261.94;;;-139.71;77.37
3598;BME280;1813;52.016;8.714;2022-11-21T01:18:26;-16261.94;;;-139.71;77.54
3598;BME280;1813;52.016;8.714;2022-11-21T01:20:59;-16261.94;;;-139.71;77.61
3598;BME280;1813;52.016;8.714;2022-11-21T01:23:33;-16261.94;;;-139.71;77.52
3598;BME280;1813;52.016;8.714;2022-11-21T01:26:11;-16261.94;;;-139.71;77.42
3598;BME280;1813;52.016;8.714;2022-11-21T01:28:46;-16261.94;;;-139.71;77.44
3598;BME280;1813;52.016;8.714;2022-11-21T01:31:22;-16261.94;;;-139.71;77.46
3598;BME280;1813;52.016;8.714;2022-11-21T01:33:58;-16261.94;;;-139.71;77.22
3598;BME280;1813;52.016;8.714;2022-11-21T01:36:33;-16261.94;;;-139.71;77.22
3598;BME280;1813;52.016;8.714;2022-11-21T01:39:07;-16261.94;;;-139.71;77.27
3598;BME280;1813;52.016;8.714;2022-11-21T01:41:44;-16261.94;;;-139.71;77.02
3598;BME280;1813;52.016;8.714;2022-11-21T01:44:20;-16261.94;;;-139.71;77.24
3598;BME280;1813;52.016;8.714;2022-11-21T01:46:54;-16261.94;;;-139.71;77.00
3598;BME280;1813;52.016;8.714;2022-11-21T01:49:30;-16261.94;;;-139.71;76.82
3598;BME280;1813;52.016;8.714;2022-11-21T01:52:08;-16261.94;;;-139.71;76.65
3598;BME280;1813;52.016;8.714;2022-11-21T01:54:44;-16261.94;;;-139.71;76.32
3598;BME280;1813;52.016;8.714;2022-11-21T01:57:25;-16261.94;;;-139.71;76.18
3598;BME280;1813;52.016;8.714;2022-11-21T02:00:05;-16261.94;;;-139.71;76.30
3598;BME280;1813;52.016;8.714;2022-11-21T02:02:46;-16261.94;;;-139.71;76.57
3598;BME280;1813;52.016;8.714;2022-11-21T02:05:26;-16261.94;;;-139.71;76.88
3598;BME280;1813;52.016;8.714;2022-11-21T02:08:03;-16261.94;;;-139.71;77.07
3598;BME280;1813;52.016;8.714;2022-11-21T02:10:44;-16261.94;;;-139.71;76.98
3598;BME280;1813;52.016;8.714;2022-11-21T02:13:23;-16261.94;;;-139.71;77.00
3598;BME280;1813;52.016;8.714;2022-11-21T02:15:57;-16261.94;;;-139.71;76.88
3598;BME280;1813;52.016;8.714;2022-11-21T02:18:31;-16261.94;;;-139.71;76.72
3598;BME280;1813;52.016;8.714;2022-11-21T02:21:12;-16261.94;;;-139.71;76.37
3598;BME280;1813;52.016;8.714;2022-11-21T02:23:56;-16261.94;;;-139.71;76.05
3598;BME280;1813;52.016;8.714;2022-11-21T02:26:37;-16261.94;;;-139.71;76.03
3598;BME280;1813;52.016;8.714;2022-11-21T02:29:10;-16261.94;;;-139.71;75.96
3598;BME280;1813;52.016;8.714;2022-11-21T02:31:44;-16261.94;;;-139.71;76.10
3598;BME280;1813;52.016;8.714;2022-11-21T02:34:18;-16261.94;;;-139.71;75.76
3598;BME280;1813;52.016;8.714;2022-11-21T02:36:52;-16261.94;;;-139.71;75.43
3598;BME280;1813;52.016;8.714;2022-11-21T02:39:29;-16261.94;;;-139.71;75.15
3598;BME280;1813;52.016;8.714;2022-11-21T02:42:12;-16261.94;;;-139.71;75.21
3598;BME280;1813;52.016;8.714;2022-11-21T02:44:52;-16261.94;;;-139.71;75.26
3598;BME280;1813;52.016;8.714;2022-11-21T02:47:29;-16261.94;;;-139.71;75.13
3598;BME280;1813;52.016;8.714;2022-11-21T02:50:09;-16261.94;;;-139.71;75.19
3598;BME280;1813;52.016;8.714;2022-11-21T02:52:45;-16261.94;;;-139.71;75.38
3598;BME280;1813;52.016;8.714;2022-11-21T02:55:18;-16261.94;;;-139.71;75.73
3598;BME280;1813;52.016;8.714;2022-11-21T02:57:55;-16261.94;;;-139.71;76.02
3598;BME280;1813;52.016;8.714;2022-11-21T03:00:29;-16261.94;;;-139.71;76.25
3598;BME280;1813;52.016;8.714;2022-11-21T03:03:03;-16261.94;;;-139.71;76.47
3598;BME280;1813;52.016;8.714;2022-11-21T03:05:38;-16261.94;;;-139.71;76.39
3598;BME280;1813;52.016;8.714;2022-11-21T03:08:12;-16261.94;;;-139.71;76.43
3598;BME280;1813;52.016;8.714;2022-11-21T03:10:45;-16261.94;;;-139.71;76.46
3598;BME280;1813;52.016;8.714;2022-11-21T03:13:22;-16261.94;;;-139.71;76.43
3598;BME280;1813;52.016;8.714;2022-11-21T03:15:56;-16261.94;;;-139.71;76.20
3598;BME280;1813;52.016;8.714;2022-11-21T03:18:31;-16261.94;;;-139.71;75.79
3598;BME280;1813;52.016;8.714;2022-11-21T03:21:05;-16261.94;;;-139.71;75.69
3598;BME280;1813;52.016;8.714;2022-11-21T03:23:39;-16261.94;;;-139.71;75.83
3598;BME280;1813;52.016;8.714;2022-11-21T03:26:12;-16261.94;;;-139.71;75.78
3598;BME280;1813;52.016;8.714;2022-11-21T03:28:49;-16261.94;;;-139.71;75.93
3598;BME280;1813;52.016;8.714;2022-11-21T03:31:22;-16261.94;;;-139.71;76.05
3598;BME280;1813;52.016;8.714;2022-11-21T03:33:56;-16261.94;;;-139.71;76.32
3598;BME280;1813;52.016;8.714;2022-11-21T03:36:30;-16261.94;;;-139.71;76.48
3598;BME280;1813;52.016;8.714;2022-11-21T03:39:04;-16261.94;;;-139.71;76.45
3598;BME280;1813;52.016;8.714;2022-11-21T03:41:38;-16261.94;;;-139.71;76.56
3598;BME280;1813;52.016;8.714;2022-11-21T03:44:14;-16261.94;;;-139.71;76.80
3598;BME280;1813;52.016;8.714;2022-11-21T03:46:48;-16261.94;;;-139.71;76.97
3598;BME280;1813;52.016;8.714;2022-11-21T03:49:22;-16261.94;;;-139.71;77.06
3598;BME280;1813;52.016;8.714;2022-11-21T03:51:56;-16261.94;;;-139.71;77.29
3598;BME280;1813;52.016;8.714;2022-11-21T03:54:30;-16261.94;;;-139.71;77.20
3598;BME280;1813;52.016;8.714;2022-11-21T03:57:03;-16261.94;;;-139.71;77.29
3598;BME280;1813;52.016;8.714;2022-11-21T03:59:40;-16261.94;;;-139.71;77.20
3598;BME280;1813;52.016;8.714;2022-11-21T04:02:14;-16261.94;;;-139.71;77.24
3598;BME280;1813;52.016;8.714;2022-11-21T04:04:47;-16261.94;;;-139.71;77.20
3598;BME280;1813;52.016;8.714;2022-11-21T04:07:21;-16261.94;;;-139.71;77.36
3598;BME280;1813;52.016;8.714;2022-11-21T04:09:55;-16261.94;;;-139.71;77.42
3598;BME280;1813;52.016;8.714;2022-11-21T04:12:29;-16261.94;;;-139.71;77.28
3598;BME280;1813;52.016;8.714;2022-11-21T04:15:06;-16261.94;;;-139.71;77.47
3598;BME280;1813;52.016;8.714;2022-11-21T04:17:40;-16261.94;;;-139.71;77.40
3598;BME280;1813;52.016;8.714;2022-11-21T04:20:15;-16261.94;;;-139.71;77.36
3598;BME280;1813;52.016;8.714;2022-11-21T04:22:48;-16261.94;;;-139.71;77.43
3598;BME280;1813;52.016;8.714;2022-11-21T04:25:22;-16261.94;;;-139.71;77.21
3598;BME280;1813;52.016;8.714;2022-11-21T04:27:57;-16261.94;;;-139.71;77.45
3598;BME280;1813;52.016;8.714;2022-11-21T04:30:33;-16261.94;;;-139.71;77.45
3598;BME280;1813;52.016;8.714;2022-11-21T04:33:07;-16261.94;;;-139.71;77.46
3598;BME280;1813;52.016;8.714;2022-11-21T04:35:41;-16261.94;;;-139.71;77.39
3598;BME280;1813;52.016;8.714;2022-11-21T04:38:16;-16261.94;;;-139.71;77.40
3598;BME280;1813;52.016;8.714;2022-11-21T04:40:49;-16261.94;;;-139.71;77.32
3598;BME280;1813;52.016;8.714;2022-11-21T04:43:23;-16261.94;;;-139.71;77.29
3598;BME280;1813;52.016;8.714;2022-11-21T04:45:59;-16261.94;;;-139.71;77.07
3598;BME280;1813;52.016;8.714;2022-11-21T04:48:33;-16261.94;;;-139.71;76.80
3598;BME280;1813;52.016;8.714;2022-11-21T04:51:07;-16261.94;;;-139.71;76.87
3598;BME280;1813;52.016;8.714;2022-11-21T04:53:40;-16261.94;;;-139.71;76.76
3598;BME280;1813;52.016;8.714;2022-11-21T04:56:15;-16261.94;;;-139.71;76.62
3598;BME280;1813;52.016;8.714;2022-11-21T04:58:51;-16261.94;;;-139.71;76.35
3598;BME280;1813;52.016;8.714;2022-11-21T05:01:27;-16261.94;;;-139.71;75.99
3598;BME280;1813;52.016;8.714;2022-11-21T05:04:01;-16261.94;;;-139.71;75.96
3598;BME280;1813;52.016;8.714;2022-11-21T05:06:35;-16261.94;;;-139.71;75.79
3598;BME280;1813;52.016;8.714;2022-11-21T05:09:09;-16261.94;;;-139.71;75.70
3598;BME280;1813;52.016;8.714;2022-11-21T05:11:43;-16261.94;;;-139.71;75.75
3598;BME280;1813;52.016;8.714;2022-11-21T05:14:29;-16261.94;;;-139.71;75.51
3598;BME280;1813;52.016;8.714;2022-11-21T05:17:05;-16261.94;;;-139.71;75.57
3598;BME280;1813;52.016;8.714;2022-11-21T05:19:39;-16261.94;;;-139.71;75.66
3598;BME280;1813;52.016;8.714;2022-11-21T05:22:13;-16261.94;;;-139.71;75.51
3598;BME280;1813;52.016;8.714;2022-11-21T05:24:47;-16261.94;;;-139.71;75.17
3598;BME280;1813;52.016;8.714;2022-11-21T05:27:20;-16261.94;;;-139.71;75.23
3598;BME280;1813;52.016;8.714;2022-11-21T05:29:54;-16261.94;;;-139.71;74.97
3598;BME280;1813;52.016;8.714;2022-11-21T05:32:30;-16261.94;;;-139.71;74.95
3598;BME280;1813;52.016;8.714;2022-11-21T05:35:05;-16261.94;;;-139.71;74.98
3598;BME280;1813;52.016;8.714;2022-11-21T05:37:39;-16261.94;;;-139.71;75.05
3598;BME280;1813;52.016;8.714;2022-11-21T05:40:13;-16261.94;;;-139.71;75.05
3598;BME280;1813;52.016;8.714;2022-11-21T05:42:47;-16261.94;;;-139.71;74.91
3598;BME280;1813;52.016;8.714;2022-11-21T05:45:33;-16261.94;;;-139.71;74.79
3598;BME280;1813;52.016;8.714;2022-11-21T05:48:09;-16261.94;;;-139.71;74.56
3598;BME280;1813;52.016;8.714;2022-11-21T05:50:46;-16261.94;;;-139.71;74.40
3598;BME280;1813;52.016;8.714;2022-11-21T05:53:20;-16261.94;;;-139.71;74.30
3598;BME280;1813;52.016;8.714;2022-11-21T05:55:54;-16261.94;;;-139.71;74.29
3598;BME280;1813;52.016;8.714;2022-11-21T05:58:27;-16261.94;;;-139.71;73.98
3598;BME280;1813;52.016;8.714;2022-11-21T06:01:02;-16261.94;;;-139.71;73.94
3598;BME280;1813;52.016;8.714;2022-11-21T06:03:40;-16261.94;;;-139.71;73.73
3598;BME280;1813;52.016;8.714;2022-11-21T06:06:13;-16261.94;;;-139.71;73.67
3598;BME280;1813;52.016;8.714;2022-11-21T06:08:47;-16261.94;;;-139.71;73.58
3598;BME280;1813;52.016;8.714;2022-11-21T06:11:24;-16261.94;;;-139.71;73.33
3598;BME280;1813;52.016;8.714;2022-11-21T06:13:58;-16261.94;;;-139.71;73.16
3598;BME280;1813;52.016;8.714;2022-11-21T06:16:31;-16261.94;;;-139.71;73.19
3598;BME280;1813;52.016;8.714;2022-11-21T06:19:08;-16261.94;;;-139.71;73.06
3598;BME280;1813;52.016;8.714;2022-11-21T06:21:42;-16261.94;;;-139.71;72.96
3598;BME280;1813;52.016;8.714;2022-11-21T06:24:15;-16261.94;;;-139.71;73.02
3598;BME280;1813;52.016;8.714;2022-11-21T06:26:49;-16261.94;;;-139.71;72.71
3598;BME280;1813;52.016;8.714;2022-11-21T06:29:23;-16261.94;;;-139.71;72.66
3598;BME280;1813;52.016;8.714;2022-11-21T06:31:57;-16261.94;;;-139.71;72.64
3598;BME280;1813;52.016;8.714;2022-11-21T06:34:33;-16261.94;;;-139.71;72.69
3598;BME280;1813;52.016;8.714;2022-11-21T06:37:07;-16261.94;;;-139.71;72.81
3598;BME280;1813;52.016;8.714;2022-11-21T06:39:41;-16261.94;;;-139.71;72.52
3598;BME280;1813;52.016;8.714;2022-11-21T06:42:15;-16261.94;;;-139.71;72.26
3598;BME280;1813;52.016;8.714;2022-11-21T06:44:48;-16261.94;;;-139.71;72.05
3598;BME280;1813;52.016;8.714;2022-11-21T06:47:23;-16261.94;;;-139.71;72.00
3598;BME280;1813;52.016;8.714;2022-11-21T06:49:59;-16261.94;;;-139.71;71.90
3598;BME280;1813;52.016;8.714;2022-11-21T06:52:33;-16261.94;;;-139.71;71.97
3598;BME280;1813;52.016;8.714;2022-11-21T06:55:08;-16261.94;;;-139.71;72.05
3598;BME280;1813;52.016;8.714;2022-11-21T06:57:42;-16261.94;;;-139.71;72.17
3598;BME280;1813;52.016;8.714;2022-11-21T07:00:17;-16261.94;;;-139.71;72.45
3598;BME280;1813;52.016;8.714;2022-11-21T07:02:50;-16261.94;;;-139.71;72.72
3598;BME280;1813;52.016;8.714;2022-11-21T07:05:27;-16261.94;;;-139.71;72.76
3598;BME280;1813;52.016;8.714;2022-11-21T07:08:02;-16261.94;;;-139.71;73.00
3598;BME280;1813;52.016;8.714;2022-11-21T07:10:36;-16261.94;;;-139.71;73.19
3598;BME280;1813;52.016;8.714;2022-11-21T07:13:10;-16261.94;;;-139.71;73.26
3598;BME280;1813;52.016;8.714;2022-11-21T07:16:00;-16261.94;;;-139.71;73.23
3598;BME280;1813;52.016;8.714;2022-11-21T07:18:35;-16261.94;;;-139.71;73.12
3598;BME280;1813;52.016;8.714;2022-11-21T07:21:11;-16261.94;;;-139.71;72.99
3598;BME280;1813;52.016;8.714;2022-11-21T07:23:45;-16261.94;;;-139.71;72.89
3598;BME280;1813;52.016;8.714;2022-11-21T07:26:19;-16261.94;;;-139.71;72.72
3598;BME280;1813;52.016;8.714;2022-11-21T07:28:53;-16261.94;;;-139.71;72.54
3598;BME280;1813;52.016;8.714;2022-11-21T07:31:27;-16261.94;;;-139.71;72.33
3598;BME280;1813;52.016;8.714;2022-11-21T07:34:00;-16261.94;;;-139.71;72.22
3598;BME280;1813;52.016;8.714;2022-11-21T07:36:37;-16261.94;;;-139.71;72.00
3598;BME280;1813;52.016;8.714;2022-11-21T07:39:11;-16261.94;;;-139.71;71.86
3598;BME280;1813;52.016;8.714;2022-11-21T07:41:44;-16261.94;;;-139.71;71.83
3598;BME280;1813;52.016;8.714;2022-11-21T07:44:18;-16261.94;;;-139.71;71.90
3598;BME280;1813;52.016;8.714;2022-11-21T07:46:53;-16261.94;;;-139.71;72.21
3598;BME280;1813;52.016;8.714;2022-11-21T07:49:27;-16261.94;;;-139.71;72.27
3598;BME280;1813;52.016;8.714;2022-11-21T07:52:03;-16261.94;;;-139.71;72.18
3598;BME280;1813;52.016;8.714;2022-11-21T07:54:37;-16261.94;;;-139.71;72.00
3598;BME280;1813;52.016;8.714;2022-11-21T07:57:11;-16261.94;;;-139.71;72.01
3598;BME280;1813;52.016;8.714;2022-11-21T07:59:44;-16261.94;;;-139.71;72.36
3598;BME280;1813;52.016;8.714;2022-11-21T08:02:19;-16261.94;;;-139.71;72.52
3598;BME280;1813;52.016;8.714;2022-11-21T08:04:53;-16261.94;;;-139.71;72.49
3598;BME280;1813;52.016;8.714;2022-11-21T08:07:30;-16261.94;;;-139.71;72.30
3598;BME280;1813;52.016;8.714;2022-11-21T08:10:04;-16261.94;;;-139.71;72.18
3598;BME280;1813;52.016;8.714;2022-11-21T08:12:38;-16261.94;;;-139.71;72.43
3598;BME280;1813;52.016;8.714;2022-11-21T08:15:12;-16261.94;;;-139.71;72.99
3598;BME280;1813;52.016;8.714;2022-11-21T08:17:46;-16261.94;;;-139.71;73.51
3598;BME280;1813;52.016;8.714;2022-11-21T08:20:19;-16261.94;;;-139.71;73.45
3598;BME280;1813;52.016;8.714;2022-11-21T08:22:57;-16261.94;;;-139.71;73.71
3598;BME280;1813;52.016;8.714;2022-11-21T08:25:32;-16261.94;;;-139.71;74.10
3598;BME280;1813;52.016;8.714;2022-11-21T08:28:07;-16261.94;;;-139.71;74.45
3598;BME280;1813;52.016;8.714;2022-11-21T08:30:41;-16261.94;;;-139.71;74.43
3598;BME280;1813;52.016;8.714;2022-11-21T08:33:15;-16261.94;;;-139.71;74.02
3598;BME280;1813;52.016;8.714;2022-11-21T08:35:48;-16261.94;;;-139.71;73.43
3598;BME280;1813;52.016;8.714;2022-11-21T08:38:25;-16261.94;;;-139.71;72.55
3598;BME280;1813;52.016;8.714;2022-11-21T08:40:59;-16261.94;;;-139.71;71.81
3598;BME280;1813;52.016;8.714;2022-11-21T08:43:45;-16261.94;;;-139.71;70.70
3598;BME280;1813;52.016;8.714;2022-11-21T08:46:18;-16261.94;;;-139.71;69.72
3598;BME280;1813;52.016;8.714;2022-11-21T08:48:56;-16261.94;;;-139.71;68.92
3598;BME280;1813;52.016;8.714;2022-11-21T08:51:31;-16261.94;;;-139.71;68.05
3598;BME280;1813;52.016;8.714;2022-11-21T08:54:08;-16261.94;;;-139.71;67.16
3598;BME280;1813;52.016;8.714;2022-11-21T08:56:42;-16261.94;;;-139.71;66.20
3598;BME280;1813;52.016;8.714;2022-11-21T08:59:15;-16261.94;;;-139.71;65.08
3598;BME280;1813;52.016;8.714;2022-11-21T09:01:50;-16261.94;;;-139.71;63.42
3598;BME280;1813;52.016;8.714;2022-11-21T09:04:24;-16261.94;;;-139.71;62.42
3598;BME280;1813;52.016;8.714;2022-11-21T09:06:58;-16261.94;;;-139.71;62.02
3598;BME280;1813;52.016;8.714;2022-11-21T09:09:36;-16261.94;;;-139.71;62.13
3598;BME280;1813;52.016;8.714;2022-11-21T09:12:10;-16261.94;;;-139.71;61.20
3598;BME280;1813;52.016;8.714;2022-11-21T09:14:43;-16261.94;;;-139.71;60.55
3598;BME280;1813;52.016;8.714;2022-11-21T09:17:30;-16261.94;;;-139.71;59.99
3598;BME280;1813;52.016;8.714;2022-11-21T09:20:16;-16261.94;;;-139.71;59.63
3598;BME280;1813;52.016;8.714;2022-11-21T09:22:50;-16261.94;;;-139.71;58.80
3598;BME280;1813;52.016;8.714;2022-11-21T09:25:26;-16261.94;;;-139.71;59.54
3598;BME280;1813;52.016;8.714;2022-11-21T09:28:01;-16261.94;;;-139.71;60.72
3598;BME280;1813;52.016;8.714;2022-11-21T09:30:34;-16261.94;;;-139.71;61.45
3598;BME280;1813;52.016;8.714;2022-11-21T09:33:10;-16261.94;;;-139.71;63.17
3598;BME280;1813;52.016;8.714;2022-11-21T09:35:44;-16261.94;;;-139.71;64.11
3598;BME280;1813;52.016;8.714;2022-11-21T09:38:18;-16261.94;;;-139.71;63.98
3598;BME280;1813;52.016;8.714;2022-11-21T09:40:59;-16261.94;;;-139.71;64.10
3598;BME280;1813;52.016;8.714;2022-11-21T09:44:00;-16261.94;;;-139.71;63.63
3598;BME280;1813;52.016;8.714;2022-11-21T09:46:44;-16261.94;;;-139.71;63.45
3598;BME280;1813;52.016;8.714;2022-11-21T09:49:21;-16261.94;;;-139.71;63.03
3598;BME280;1813;52.016;8.714;2022-11-21T09:51:58;-16261.94;;;-139.71;62.00
3598;BME280;1813;52.016;8.714;2022-11-21T09:54:33;-16261.94;;;-139.71;61.74
3598;BME280;1813;52.016;8.714;2022-11-21T09:57:14;-16261.94;;;-139.71;62.16
3598;BME280;1813;52.016;8.714;2022-11-21T09:59:50;-16261.94;;;-139.71;62.25
3598;BME280;1813;52.016;8.714;2022-11-21T10:02:24;-16261.94;;;-139.71;62.51
3598;BME280;1813;52.016;8.714;2022-11-21T10:04:58;-16261.94;;;-139.71;62.65
3598;BME280;1813;52.016;8.714;2022-11-21T10:07:32;-16261.94;;;-139.71;62.90
3598;BME280;1813;52.016;8.714;2022-11-21T10:10:28;-16261.94;;;-139.71;62.68
3598;BME280;1813;52.016;8.714;2022-11-21T10:13:16;-16261.94;;;-139.71;61.86
3598;BME280;1813;52.016;8.714;2022-11-21T10:15:57;-16261.94;;;-139.71;61.60
3598;BME280;1813;52.016;8.714;2022-11-21T10:22:07;-16261.94;;;-139.71;60.50
3598;BME280;1813;52.016;8.714;2022-11-21T10:24:52;-16261.94;;;-139.71;61.21
3598;BME280;1813;52.016;8.714;2022-11-21T10:27:32;-16261.94;;;-139.71;61.20
3598;BME280;1813;52.016;8.714;2022-11-21T10:30:16;-16261.94;;;-139.71;60.81
3598;BME280;1813;52.016;8.714;2022-11-21T10:32:53;-16261.94;;;-139.71;60.82
3598;BME280;1813;52.016;8.714;2022-11-21T10:35:35;-16261.94;;;-139.71;60.41
3598;BME280;1813;52.016;8.714;2022-11-21T10:38:18;-16261.94;;;-139.71;60.44
3598;BME280;1813;52.016;8.714;2022-11-21T10:41:00;-16261.94;;;-139.71;60.72
3598;BME280;1813;52.016;8.714;2022-11-21T10:43:38;-16261.94;;;-139.71;60.93
3598;BME280;1813;52.016;8.714;2022-11-21T10:46:28;-16261.94;;;-139.71;61.21
3598;BME280;1813;52.016;8.714;2022-11-21T10:49:03;-16261.94;;;-139.71;60.98
3598;BME280;1813;52.016;8.714;2022-11-21T10:51:44;-16261.94;;;-139.71;60.82
3598;BME280;1813;52.016;8.714;2022-11-21T10:54:22;-16261.94;;;-139.71;60.64
3598;BME280;1813;52.016;8.714;2022-11-21T10:57:10;-16261.94;;;-139.71;61.01
3598;BME280;1813;52.016;8.714;2022-11-21T10:59:55;-16261.94;;;-139.71;60.55
3598;BME280;1813;52.016;8.714;2022-11-21T11:02:34;-16261.94;;;-139.71;59.74
3598;BME280;1813;52.016;8.714;2022-11-21T11:05:26;-16261.94;;;-139.71;59.19
3598;BME280;1813;52.016;8.714;2022-11-21T11:08:03;-16261.94;;;-139.71;58.54
3598;BME280;1813;52.016;8.714;2022-11-21T11:10:39;-16261.94;;;-139.71;58.40
3598;BME280;1813;52.016;8.714;2022-11-21T11:13:14;-16261.94;;;-139.71;57.86
3598;BME280;1813;52.016;8.714;2022-11-21T11:16:04;-16261.94;;;-139.71;57.72
3598;BME280;1813;52.016;8.714;2022-11-21T11:18:47;-16261.94;;;-139.71;56.69
3598;BME280;1813;52.016;8.714;2022-11-21T11:21:26;-16261.94;;;-139.71;55.67
3598;BME280;1813;52.016;8.714;2022-11-21T11:24:20;-16261.94;;;-139.71;55.49
3598;BME280;1813;52.016;8.714;2022-11-21T11:26:58;-16261.94;;;-139.71;55.75
3598;BME280;1813;52.016;8.714;2022-11-21T11:29:32;-16261.94;;;-139.71;56.25
3598;BME280;1813;52.016;8.714;2022-11-21T11:32:15;-16261.94;;;-139.71;56.41
3598;BME280;1813;52.016;8.714;2022-11-21T11:34:57;-16261.94;;;-139.71;55.80
3598;BME280;1813;52.016;8.714;2022-11-21T11:37:35;-16261.94;;;-139.71;55.39
3598;BME280;1813;52.016;8.714;2022-11-21T11:40:18;-16261.94;;;-139.71;55.31
3598;BME280;1813;52.016;8.714;2022-11-21T11:43:09;-16261.94;;;-139.71;55.50
3598;BME280;1813;52.016;8.714;2022-11-21T11:46:10;-16261.94;;;-139.71;55.55
3598;BME280;1813;52.016;8.714;2022-11-21T11:49:02;-16261.94;;;-139.71;55.16
3598;BME280;1813;52.016;8.714;2022-11-21T11:51:43;-16261.94;;;-139.71;55.45
3598;BME280;1813;52.016;8.714;2022-11-21T11:54:22;-16261.94;;;-139.71;56.01
3598;BME280;1813;52.016;8.714;2022-11-21T11:56:58;-16261.94;;;-139.71;56.33
3598;BME280;1813;52.016;8.714;2022-11-21T11:59:35;-16261.94;;;-139.71;56.69
3598;BME280;1813;52.016;8.714;2022-11-21T12:02:17;-16261.94;;;-139.71;57.40
3598;BME280;1813;52.016;8.714;2022-11-21T12:04:54;-16261.94;;;-139.71;57.49
3598;BME280;1813;52.016;8.714;2022-11-21T12:07:35;-16261.94;;;-139.71;57.72
3598;BME280;1813;52.016;8.714;2022-11-21T12:10:15;-16261.94;;;-139.71;58.12
3598;BME280;1813;52.016;8.714;2022-11-21T12:12:55;-16261.94;;;-139.71;57.99
3598;BME280;1813;52.016;8.714;2022-11-21T12:15:38;-16261.94;;;-139.71;58.49
3598;BME280;1813;52.016;8.714;2022-11-21T12:18:27;-16261.94;;;-139.71;57.85
3598;BME280;1813;52.016;8.714;2022-11-21T12:21:06;-16261.94;;;-139.71;55.70
3598;BME280;1813;52.016;8.714;2022-11-21T12:23:46;-16261.94;;;-139.71;55.38
3598;BME280;1813;52.016;8.714;2022-11-21T12:26:28;-16261.94;;;-139.71;56.05
3598;BME280;1813;52.016;8.714;2022-11-21T12:29:16;-16261.94;;;-139.71;56.91
3598;BME280;1813;52.016;8.714;2022-11-21T12:32:03;-16261.94;;;-139.71;56.91
3598;BME280;1813;52.016;8.714;2022-11-21T12:35:04;-16261.94;;;-139.71;57.26
3598;BME280;1813;52.016;8.714;2022-11-21T12:37:48;-16261.94;;;-139.71;57.66
3598;BME280;1813;52.016;8.714;2022-11-21T12:40:38;-16261.94;;;-139.71;58.31
3598;BME280;1813;52.016;8.714;2022-11-21T12:43:26;-16261.94;;;-139.71;57.72
3598;BME280;1813;52.016;8.714;2022-11-21T12:46:05;-16261.94;;;-139.71;57.27
3598;BME280;1813;52.016;8.714;2022-11-21T12:48:50;-16261.94;;;-139.71;56.45
3598;BME280;1813;52.016;8.714;2022-11-21T12:55:12;-16261.94;;;-139.71;53.89
3598;BME280;1813;52.016;8.714;2022-11-21T12:58:04;-16261.94;;;-139.71;53.74
3598;BME280;1813;52.016;8.714;2022-11-21T13:00:53;-16261.94;;;-139.71;53.81
3598;BME280;1813;52.016;8.714;2022-11-21T13:03:39;-16261.94;;;-139.71;54.27
3598;BME280;1813;52.016;8.714;2022-11-21T13:06:17;-16261.94;;;-139.71;54.78
3598;BME280;1813;52.016;8.714;2022-11-21T13:08:53;-16261.94;;;-139.71;55.66
3598;BME280;1813;52.016;8.714;2022-11-21T13:11:40;-16261.94;;;-139.71;56.95
3598;BME280;1813;52.016;8.714;2022-11-21T13:14:41;-16261.94;;;-139.71;58.58
3598;BME280;1813;52.016;8.714;2022-11-21T13:17:28;-16261.94;;;-139.71;59.24
3598;BME280;1813;52.016;8.714;2022-11-21T13:20:16;-16261.94;;;-139.71;59.41
3598;BME280;1813;52.016;8.714;2022-11-21T13:23:34;-16261.94;;;-139.71;59.67
3598;BME280;1813;52.016;8.714;2022-11-21T13:26:45;-16261.94;;;-139.71;60.54
3598;BME280;1813;52.016;8.714;2022-11-21T13:29:20;-16261.94;;;-139.71;61.24
3598;BME280;1813;52.016;8.714;2022-11-21T13:31:56;-16261.94;;;-139.71;62.03
3598;BME280;1813;52.016;8.714;2022-11-21T13:34:37;-16261.94;;;-139.71;62.76
3598;BME280;1813;52.016;8.714;2022-11-21T13:40:34;-16261.94;;;-139.71;64.58
3598;BME280;1813;52.016;8.714;2022-11-21T13:43:22;-16261.94;;;-139.71;65.42
3598;BME280;1813;52.016;8.714;2022-11-21T13:45:53;-16261.94;;;-139.71;66.14
3598;BME280;1813;52.016;8.714;2022-11-21T13:48:58;-16261.94;;;-139.71;66.89
3598;BME280;1813;52.016;8.714;2022-11-21T13:51:46;-16261.94;;;-139.71;67.49
3598;BME280;1813;52.016;8.714;2022-11-21T13:57:34;-16261.94;;;-139.71;68.22